Time;durP1;ratioP1;P1;durP2;ratioP2;P2;SDS_P1;SDS_P2;PMS_P1;PMS_P2;Temp;Humidity;BMP_temperature;BMP_pressure;BME280_temperature;BME280_humidity;BME280_pressure;Samples;Min_cycle;Max_cycle;Signal;HPM_P1;HPM_P2
2023/07/18 00:00:37;;;;;;;;;23.75;23.75;;;;;28.02;42.76;99412.03;5059279;28;8854;-78
2023/07/18 00:03:28;;;;;;;;;25.25;25.00;;;;;27.92;43.02;99424.72;5068199;28;8997;-78
2023/07/18 00:05:58;;;;;;;;;27.75;27.25;;;;;27.86;43.22;99424.47;5068007;28;8947;-79
2023/07/18 00:08:26;;;;;;;;;25.50;25.00;;;;;27.78;43.32;99417.06;5071088;28;8875;-80
2023/07/18 00:10:56;;;;;;;;;25.50;25.50;;;;;27.79;43.26;99419.63;5068016;28;8846;-79
2023/07/18 00:13:26;;;;;;;;;25.25;24.25;;;;;27.79;43.23;99418.78;5049262;28;8858;-78
2023/07/18 00:15:54;;;;;;;;;23.75;23.75;;;;;27.81;43.12;99416.78;5066685;28;8854;-78
2023/07/18 00:18:23;;;;;;;;;25.50;24.00;;;;;27.82;43.23;99411.25;5068285;28;8981;-77
2023/07/18 00:20:52;;;;;;;;;27.25;26.00;;;;;27.88;42.86;99412.50;5049871;28;8866;-77
2023/07/18 00:23:21;;;;;;;;;24.75;24.50;;;;;27.82;42.80;99413.09;5067653;28;9071;-77
2023/07/18 00:25:49;;;;;;;;;28.25;25.75;;;;;27.81;43.09;99414.09;5039179;28;8863;-79
2023/07/18 00:28:18;;;;;;;;;26.00;23.50;;;;;27.81;42.89;99411.38;5062062;28;8916;-78
2023/07/18 00:30:48;;;;;;;;;23.50;23.50;;;;;27.81;42.90;99416.78;5047428;28;8880;-78
2023/07/18 00:33:17;;;;;;;;;23.50;23.50;;;;;27.79;43.06;99408.81;5049539;28;8888;-80
2023/07/18 00:35:46;;;;;;;;;27.00;25.00;;;;;27.78;42.98;99403.56;5070765;28;8849;-79
2023/07/18 00:38:16;;;;;;;;;23.75;21.75;;;;;27.80;43.23;99412.41;5067044;28;8872;-80
2023/07/18 00:40:48;;;;;;;;;23.75;23.75;;;;;27.82;42.68;99407.69;5053996;28;8853;-78
2023/07/18 00:43:18;;;;;;;;;25.00;24.50;;;;;27.78;42.87;99408.97;5056471;28;9415;-77
2023/07/18 00:45:51;;;;;;;;;25.00;25.00;;;;;27.77;43.12;99407.28;5088078;28;8860;-78
2023/07/18 00:48:20;;;;;;;;;25.75;23.25;;;;;27.74;43.25;99407.56;5086766;28;8848;-79
2023/07/18 00:50:49;;;;;;;;;28.75;26.75;;;;;27.71;43.36;99408.72;5105668;28;8870;-78
2023/07/18 00:53:18;;;;;;;;;25.75;25.75;;;;;27.63;43.40;99400.50;5087798;28;9853;-77
2023/07/18 00:55:48;;;;;;;;;25.75;23.50;;;;;27.62;43.56;99398.78;5085705;28;8855;-77
2023/07/18 00:58:17;;;;;;;;;25.25;25.25;;;;;27.58;43.63;99400.09;5068260;28;8863;-77
2023/07/18 01:00:46;;;;;;;;;28.25;25.25;;;;;27.58;43.63;99400.94;5093986;28;9557;-78
2023/07/18 01:03:17;;;;;;;;;23.25;22.75;;;;;27.55;43.85;99393.13;5088783;28;8855;-78
2023/07/18 01:05:46;;;;;;;;;31.50;28.50;;;;;27.23;44.65;99393.41;5107158;28;8854;-78
2023/07/18 01:08:15;;;;;;;;;25.00;25.00;;;;;27.12;44.80;99391.75;5107889;28;8874;-77
2023/07/18 01:10:44;;;;;;;;;30.75;26.75;;;;;26.86;45.47;99391.44;5059605;28;8902;-78
2023/07/18 01:13:13;;;;;;;;;24.75;23.75;;;;;26.85;45.76;99393.28;5091594;28;8874;-77
2023/07/18 01:15:43;;;;;;;;;24.25;24.00;;;;;26.82;46.00;99395.41;5093113;28;9651;-78
2023/07/18 01:18:13;;;;;;;;;28.00;27.75;;;;;26.71;46.33;99395.53;5068786;28;8979;-77
2023/07/18 01:20:46;;;;;;;;;30.25;27.25;;;;;26.54;47.18;99386.28;5020955;28;8937;-78
2023/07/18 01:23:16;;;;;;;;;26.50;24.75;;;;;26.06;48.16;99391.38;5015812;28;9100;-78
2023/07/18 01:25:45;;;;;;;;;26.00;25.60;;;;;26.22;48.25;99392.69;5049064;28;8863;-77
2023/07/18 01:28:14;;;;;;;;;29.00;27.00;;;;;26.33;47.82;99397.97;5031984;28;8857;-78
2023/07/18 01:30:43;;;;;;;;;31.25;29.50;;;;;26.26;48.28;99394.97;5031533;28;8857;-78
2023/07/18 01:33:12;;;;;;;;;28.00;26.50;;;;;26.48;47.43;99388.53;5051833;28;8886;-78
2023/07/18 01:35:41;;;;;;;;;27.50;27.50;;;;;26.69;46.58;99394.81;5051767;28;9620;-78
2023/07/18 01:38:10;;;;;;;;;27.75;27.50;;;;;26.70;46.69;99399.22;5036043;28;9603;-77
2023/07/18 01:40:40;;;;;;;;;28.25;26.75;;;;;26.86;46.32;99396.81;5048337;28;8849;-78
2023/07/18 01:43:10;;;;;;;;;29.75;29.00;;;;;26.97;46.25;99394.00;5031802;28;8849;-77
2023/07/18 01:45:39;;;;;;;;;27.25;25.25;;;;;27.07;45.98;99395.88;5031716;28;8907;-77
2023/07/18 01:48:08;;;;;;;;;26.75;26.50;;;;;27.04;46.12;99396.97;5031663;28;8980;-80
2023/07/18 01:50:37;;;;;;;;;30.25;28.00;;;;;27.12;45.89;99398.97;5052099;28;8852;-78
2023/07/18 01:53:06;;;;;;;;;31.50;28.25;;;;;27.13;45.92;99398.00;5049919;28;8837;-79
2023/07/18 01:55:35;;;;;;;;;27.75;27.75;;;;;27.17;45.97;99399.41;5049870;28;9002;-79
2023/07/18 01:58:05;;;;;;;;;26.00;25.75;;;;;26.71;46.97;99400.94;5056018;28;8846;-78
2023/07/18 02:00:35;;;;;;;;;31.25;29.50;;;;;26.43;47.83;99404.22;5036014;28;8878;-78
2023/07/18 02:03:05;;;;;;;;;24.25;24.25;;;;;26.63;47.25;99401.63;5071262;28;8958;-78
2023/07/18 02:05:35;;;;;;;;;31.75;30.25;;;;;26.68;47.05;99402.03;5036493;28;8987;-78
2023/07/18 02:08:04;;;;;;;;;31.75;30.50;;;;;26.71;47.22;99411.72;5072797;28;8895;-77
2023/07/18 02:10:34;;;;;;;;;34.00;31.75;;;;;26.52;48.03;99415.22;5089420;28;8982;-78
2023/07/18 02:13:03;;;;;;;;;31.75;30.00;;;;;26.63;47.82;99423.19;5090964;28;8848;-78
2023/07/18 02:15:34;;;;;;;;;34.00;31.25;;;;;26.42;48.56;99429.50;5089714;28;8835;-77
2023/07/18 02:18:06;;;;;;;;;35.75;32.25;;;;;25.22;52.53;99429.06;5065901;28;8885;-77
2023/07/18 02:20:35;;;;;;;;;39.50;34.75;;;;;24.47;55.51;99452.22;5049350;28;8878;-79
2023/07/18 02:23:04;;;;;;;;;37.75;33.75;;;;;24.23;56.95;99452.34;5068009;28;8856;-78
2023/07/18 02:25:33;;;;;;;;;37.25;33.50;;;;;24.18;57.36;99451.88;5087849;28;8853;-78
2023/07/18 02:28:01;;;;;;;;;34.50;32.00;;;;;24.20;57.18;99454.44;5056816;28;8840;-79
2023/07/18 02:30:32;;;;;;;;;35.00;32.00;;;;;24.39;56.32;99460.03;5001890;28;8992;-78
2023/07/18 02:33:04;;;;;;;;;36.75;33.25;;;;;24.04;57.76;99463.69;5051251;28;8850;-79
2023/07/18 02:35:33;;;;;;;;;32.25;31.25;;;;;24.07;58.05;99466.09;5067619;28;8858;-78
2023/07/18 02:38:02;;;;;;;;;34.50;32.00;;;;;24.35;57.07;99470.16;5034635;28;8846;-78
2023/07/18 02:40:31;;;;;;;;;34.50;31.25;;;;;24.55;56.08;99473.09;5069333;28;8876;-78
2023/07/18 02:43:00;;;;;;;;;33.50;31.00;;;;;24.50;56.29;99486.03;5088558;28;8845;-78
2023/07/18 02:45:29;;;;;;;;;30.25;29.50;;;;;24.25;57.52;99479.94;5071239;28;8857;-78
2023/07/18 02:47:58;;;;;;;;;33.75;32.00;;;;;24.04;57.91;99484.31;5072162;28;8850;-78
2023/07/18 02:50:28;;;;;;;;;34.00;31.75;;;;;23.62;59.50;99482.16;5033858;28;8988;-79
2023/07/18 02:52:58;;;;;;;;;42.75;35.75;;;;;23.27;60.68;99491.00;5050564;28;8873;-77
2023/07/18 02:55:27;;;;;;;;;36.50;33.00;;;;;22.97;61.72;99486.94;5070078;28;9000;-78
2023/07/18 02:57:56;;;;;;;;;41.50;35.50;;;;;22.96;61.48;99479.88;5087302;28;8962;-79
2023/07/18 03:00:27;;;;;;;;;45.50;36.50;;;;;23.10;61.03;99480.69;5074890;28;8859;-79
2023/07/18 03:02:56;;;;;;;;;46.00;36.75;;;;;22.95;61.51;99496.94;5071706;28;9637;-78
2023/07/18 03:05:27;;;;;;;;;44.25;38.00;;;;;22.81;61.98;99507.78;5081742;28;8831;-79
2023/07/18 03:07:57;;;;;;;;;42.25;36.25;;;;;22.66;62.47;99514.25;5068064;28;9645;-79
2023/07/18 03:10:26;;;;;;;;;46.25;38.50;;;;;22.77;62.17;99511.66;5050896;28;8846;-79
2023/07/18 03:12:55;;;;;;;;;40.25;35.50;;;;;22.85;61.81;99520.00;5051257;28;8850;-77
2023/07/18 03:15:24;;;;;;;;;40.50;35.75;;;;;22.88;61.67;99522.44;5050670;28;8855;-79
2023/07/18 03:17:53;;;;;;;;;38.00;32.75;;;;;22.89;61.77;99526.03;5086348;28;8906;-79
2023/07/18 03:20:24;;;;;;;;;42.25;36.75;;;;;22.97;61.49;99529.00;5068382;28;8939;-78
2023/07/18 03:22:53;;;;;;;;;32.00;30.25;;;;;22.86;62.06;99528.88;5018270;28;8846;-78
2023/07/18 03:25:24;;;;;;;;;43.50;36.50;;;;;22.83;62.38;99532.66;5071161;28;8866;-79
2023/07/18 03:27:53;;;;;;;;;43.00;36.50;;;;;22.83;62.22;99526.41;5068921;28;8842;-79
2023/07/18 03:30:22;;;;;;;;;44.50;38.75;;;;;22.62;62.93;99535.06;5068714;28;8862;-79
2023/07/18 03:32:51;;;;;;;;;70.50;59.75;;;;;22.84;62.05;99550.44;5055438;28;8869;-81
2023/07/18 03:35:20;;;;;;;;;36.75;33.25;;;;;22.86;61.87;99544.97;5051162;28;9800;-79
2023/07/18 03:37:49;;;;;;;;;39.25;34.75;;;;;22.93;61.74;99548.94;5067876;28;8873;-80
2023/07/18 03:40:18;;;;;;;;;42.50;35.50;;;;;22.87;61.80;99550.22;5050971;28;8874;-79
2023/07/18 03:42:48;;;;;;;;;46.50;37.00;;;;;22.71;62.47;99555.84;5069505;28;8849;-80
2023/07/18 03:45:18;;;;;;;;;41.00;36.25;;;;;22.68;62.67;99555.19;5069590;28;8891;-83
2023/07/18 03:47:47;;;;;;;;;43.00;36.00;;;;;22.92;61.85;99558.81;5048632;28;8903;-80
2023/07/18 03:50:17;;;;;;;;;44.00;38.25;;;;;22.77;62.34;99563.44;5049561;28;8859;-82
2023/07/18 03:52:46;;;;;;;;;38.75;34.75;;;;;22.78;62.65;99558.91;5049869;28;8875;-78
2023/07/18 03:55:15;;;;;;;;;44.25;37.00;;;;;23.05;61.60;99557.91;5049846;28;8852;-76
2023/07/18 03:57:45;;;;;;;;;45.50;38.25;;;;;22.96;62.23;99563.00;5066206;28;8890;-81
2023/07/18 04:00:17;;;;;;;;;43.50;38.00;;;;;23.03;62.02;99559.84;5049679;28;8897;-80
2023/07/18 04:02:49;;;;;;;;;42.75;36.25;;;;;23.39;60.63;99567.00;5053279;28;8883;-79
2023/07/18 04:05:18;;;;;;;;;43.75;37.50;;;;;23.54;60.05;99573.94;5024037;28;8838;-80
2023/07/18 04:07:48;;;;;;;;;39.25;34.75;;;;;23.74;59.33;99583.19;4961639;28;8868;-80
2023/07/18 04:10:16;;;;;;;;;47.50;40.25;;;;;24.19;57.72;99570.88;5026142;28;9067;-78
2023/07/18 04:12:45;;;;;;;;;47.50;40.25;;;;;24.52;56.73;99572.75;5025759;28;8892;-79
2023/07/18 04:15:16;;;;;;;;;39.75;35.00;;;;;24.78;55.99;99577.94;4992278;28;8886;-79
2023/07/18 04:17:45;;;;;;;;;40.25;34.50;;;;;24.98;55.08;99579.88;4990188;28;8944;-80
2023/07/18 04:20:14;;;;;;;;;43.00;36.75;;;;;25.22;54.23;99579.69;5026212;28;8891;-80
2023/07/18 04:22:43;;;;;;;;;45.75;37.25;;;;;25.17;54.88;99581.94;5040486;28;8852;-78
2023/07/18 04:25:12;;;;;;;;;43.50;35.00;;;;;25.48;53.60;99592.88;5029570;28;9109;-79
2023/07/18 04:27:41;;;;;;;;;42.75;37.00;;;;;25.74;52.68;99582.63;5045846;28;8872;-80
2023/07/18 04:30:11;;;;;;;;;42.00;37.00;;;;;25.99;52.58;99586.81;5012809;28;8861;-79
2023/07/18 04:32:42;;;;;;;;;37.00;33.00;;;;;26.21;51.60;99584.97;5045752;28;8933;-78
2023/07/18 04:35:11;;;;;;;;;37.25;33.25;;;;;26.34;50.62;99587.47;5018216;28;9614;-79
2023/07/18 04:37:41;;;;;;;;;41.00;35.25;;;;;26.31;50.98;99585.06;5020025;28;8881;-79
2023/07/18 04:40:11;;;;;;;;;40.25;34.50;;;;;26.43;50.10;99589.34;5045294;28;8869;-77
2023/07/18 04:42:41;;;;;;;;;34.00;30.50;;;;;26.58;49.72;99587.19;5049204;28;8960;-79
2023/07/18 04:45:11;;;;;;;;;34.50;31.75;;;;;26.72;49.47;99586.84;5064330;28;8977;-79
2023/07/18 04:47:41;;;;;;;;;31.00;29.50;;;;;26.83;48.77;99588.56;5050669;28;8860;-78
2023/07/18 04:50:10;;;;;;;;;38.00;33.50;;;;;26.85;48.44;99595.56;5049685;28;8884;-78
2023/07/18 04:52:40;;;;;;;;;45.25;38.00;;;;;27.05;48.37;99593.78;5050791;28;8861;-78
2023/07/18 04:55:10;;;;;;;;;49.00;41.00;;;;;27.03;47.50;99593.09;5060545;28;8834;-79
2023/07/18 04:57:39;;;;;;;;;42.50;36.75;;;;;27.16;46.93;99595.53;5090351;28;8854;-78
2023/07/18 05:00:10;;;;;;;;;33.25;31.75;;;;;27.25;46.78;99604.66;5072649;28;9062;-78
2023/07/18 05:02:40;;;;;;;;;34.75;32.00;;;;;27.32;46.73;99610.34;5068687;28;8898;-81
2023/07/18 05:05:10;;;;;;;;;31.25;30.25;;;;;27.34;46.55;99606.50;5052917;28;8860;-77
2023/07/18 05:07:41;;;;;;;;;33.75;30.75;;;;;27.49;45.92;99609.66;5069605;28;8877;-78
2023/07/18 05:10:10;;;;;;;;;31.50;30.25;;;;;27.31;45.54;99614.03;5056062;28;8900;-77
2023/07/18 05:12:39;;;;;;;;;29.00;29.00;;;;;27.45;45.16;99617.19;5074983;28;8846;-80
2023/07/18 05:15:09;;;;;;;;;32.00;30.75;;;;;27.63;44.99;99608.44;5018515;28;9016;-80
2023/07/18 05:17:38;;;;;;;;;28.00;26.25;;;;;27.77;44.53;99617.97;5063039;28;8941;-78
2023/07/18 05:20:10;;;;;;;;;29.00;29.00;;;;;27.57;44.00;99612.56;5068538;28;9002;-81
2023/07/18 05:22:41;;;;;;;;;30.00;25.50;;;;;27.72;43.67;99609.41;5024512;28;8854;-77
2023/07/18 05:25:12;;;;;;;;;29.50;28.75;;;;;27.72;43.15;99612.13;5088983;28;8834;-77
2023/07/18 05:27:42;;;;;;;;;27.00;26.25;;;;;27.93;42.65;99611.97;5071003;28;8819;-78
2023/07/18 05:30:16;;;;;;;;;28.00;27.50;;;;;28.13;42.25;99612.84;5108740;28;8852;-79
2023/07/18 05:32:47;;;;;;;;;26.75;25.50;;;;;28.01;42.02;99618.38;5038896;28;8838;-81
2023/07/18 05:35:16;;;;;;;;;29.25;25.00;;;;;28.19;41.68;99625.78;5071648;28;8850;-80
2023/07/18 05:37:46;;;;;;;;;25.25;25.25;;;;;28.18;41.01;99616.81;5054884;28;8841;-79
2023/07/18 05:40:15;;;;;;;;;18.00;18.00;;;;;28.17;40.81;99630.47;5071613;28;8878;-78
2023/07/18 05:42:49;;;;;;;;;28.00;27.00;;;;;28.29;40.04;99632.03;5079284;28;8861;-75
2023/07/18 05:45:17;;;;;;;;;22.50;20.75;;;;;28.44;40.28;99637.81;5088363;28;8842;-74
2023/07/18 05:47:46;;;;;;;;;23.50;23.00;;;;;28.45;40.02;99630.59;5087269;28;8818;-75
2023/07/18 05:50:15;;;;;;;;;25.60;23.80;;;;;28.57;39.99;99637.50;5088518;28;8854;-76
2023/07/18 05:52:46;;;;;;;;;21.80;20.40;;;;;28.49;38.97;99635.53;5087374;28;8830;-74
2023/07/18 05:55:14;;;;;;;;;27.50;24.75;;;;;28.53;39.26;99634.25;5067513;28;8875;-74
2023/07/18 05:57:43;;;;;;;;;23.25;23.25;;;;;28.68;39.07;99640.06;5019293;28;8848;-77
2023/07/18 06:00:13;;;;;;;;;24.75;23.75;;;;;28.76;38.70;99637.50;5047920;28;8869;-74
2023/07/18 06:02:42;;;;;;;;;23.20;21.80;;;;;28.81;38.75;99641.59;5011199;28;8858;-73
2023/07/18 06:05:11;;;;;;;;;21.75;20.00;;;;;28.98;39.06;99638.13;5070645;28;8864;-74
2023/07/18 06:07:40;;;;;;;;;27.25;26.50;;;;;28.97;38.81;99634.56;5048064;28;8850;-74
2023/07/18 06:10:12;;;;;;;;;23.00;22.75;;;;;29.11;38.71;99640.47;5058589;28;8854;-74
2023/07/18 06:12:41;;;;;;;;;23.75;23.75;;;;;29.12;38.38;99637.63;5070243;28;8984;-75
2023/07/18 06:15:11;;;;;;;;;24.75;24.75;;;;;29.20;38.32;99634.19;5069729;28;8958;-75
2023/07/18 06:17:39;;;;;;;;;24.50;24.50;;;;;29.23;38.10;99639.28;5069611;28;8924;-75
2023/07/18 06:20:12;;;;;;;;;18.80;18.80;;;;;29.29;38.09;99636.00;5069903;28;8888;-74
2023/07/18 06:22:41;;;;;;;;;28.25;24.75;;;;;29.27;38.42;99635.28;5050125;28;8892;-76
2023/07/18 06:25:14;;;;;;;;;21.25;21.25;;;;;29.29;38.76;99638.72;5065645;28;9605;-75
2023/07/18 06:27:43;;;;;;;;;24.50;23.25;;;;;29.41;38.18;99642.06;5068686;28;8861;-74
2023/07/18 06:30:12;;;;;;;;;23.25;22.50;;;;;29.51;38.52;99637.41;5070071;28;9024;-77
2023/07/18 06:32:41;;;;;;;;;21.25;21.25;;;;;29.34;38.11;99641.78;5070189;28;8944;-76
2023/07/18 06:35:10;;;;;;;;;24.75;24.75;;;;;29.48;37.65;99653.13;5069865;28;8866;-76
2023/07/18 06:37:42;;;;;;;;;26.00;23.75;;;;;29.56;37.42;99650.50;5069979;28;8907;-77
2023/07/18 06:40:14;;;;;;;;;21.80;21.80;;;;;29.71;37.62;99653.59;5070129;28;8935;-75
2023/07/18 06:42:43;;;;;;;;;25.00;25.00;;;;;29.70;37.36;99658.13;5069734;28;8849;-75
2023/07/18 06:45:14;;;;;;;;;23.75;23.00;;;;;29.74;37.41;99653.25;5069766;28;8892;-79
2023/07/18 06:47:44;;;;;;;;;24.50;24.50;;;;;29.74;38.17;99655.97;5069681;28;8873;-81
2023/07/18 06:50:14;;;;;;;;;24.00;22.75;;;;;29.92;37.79;99658.69;5069759;28;8899;-80
2023/07/18 06:52:42;;;;;;;;;22.40;20.80;;;;;29.94;36.58;99662.09;5035136;28;8893;-78
2023/07/18 06:55:12;;;;;;;;;21.00;21.00;;;;;29.79;36.76;99669.06;5052765;28;8972;-81
2023/07/18 06:57:41;;;;;;;;;20.25;20.25;;;;;29.91;37.29;99670.53;5053214;28;8866;-79
2023/07/18 07:00:14;;;;;;;;;21.60;21.20;;;;;30.03;35.87;99669.31;5053839;28;8885;-79
2023/07/18 07:02:44;;;;;;;;;18.80;18.80;;;;;30.21;35.67;99665.75;5018663;28;9693;-79
2023/07/18 07:05:13;;;;;;;;;19.40;19.40;;;;;30.23;35.56;99666.44;5067584;28;8889;-79
2023/07/18 07:07:42;;;;;;;;;27.25;26.00;;;;;30.39;35.85;99668.41;5051781;28;8935;-77
2023/07/18 07:10:12;;;;;;;;;20.60;20.20;;;;;30.31;35.34;99666.50;5069836;28;8968;-80
2023/07/18 07:12:41;;;;;;;;;23.00;22.80;;;;;30.21;34.32;99674.72;5069198;28;8850;-79
2023/07/18 07:15:11;;;;;;;;;17.60;17.60;;;;;30.28;34.07;99664.13;5068024;28;8928;-80
2023/07/18 07:17:41;;;;;;;;;18.60;18.60;;;;;30.32;34.87;99669.06;5017364;28;8850;-82
2023/07/18 07:20:12;;;;;;;;;19.00;17.60;;;;;30.38;34.49;99666.72;5069274;28;8850;-79
2023/07/18 07:22:43;;;;;;;;;20.40;20.40;;;;;30.37;34.66;99670.44;5019342;28;8854;-80
2023/07/18 07:25:15;;;;;;;;;20.40;20.40;;;;;30.49;34.27;99670.03;5051497;28;8850;-79
2023/07/18 07:27:46;;;;;;;;;21.00;19.00;;;;;30.47;34.02;99663.06;5067701;28;8858;-79
2023/07/18 07:30:16;;;;;;;;;19.20;19.20;;;;;30.18;33.71;99674.19;5051121;28;8870;-79
2023/07/18 07:32:47;;;;;;;;;18.00;18.00;;;;;30.42;33.05;99673.53;5068552;28;8868;-80
2023/07/18 07:35:18;;;;;;;;;18.25;17.50;;;;;30.43;32.88;99669.81;5068480;28;8911;-81
2023/07/18 07:37:47;;;;;;;;;17.40;17.40;;;;;30.46;32.39;99677.63;5051418;28;8854;-81
2023/07/18 07:40:18;;;;;;;;;15.60;15.60;;;;;30.52;32.39;99676.97;5050959;28;8861;-79
2023/07/18 07:42:47;;;;;;;;;16.20;15.40;;;;;30.48;32.35;99679.19;5068092;28;8862;-81
2023/07/18 07:45:17;;;;;;;;;17.60;17.60;;;;;30.54;32.40;99677.69;5067726;28;8939;-80
2023/07/18 07:47:46;;;;;;;;;19.40;18.40;;;;;30.30;32.60;99673.78;5068501;28;8895;-80
2023/07/18 07:50:15;;;;;;;;;17.20;17.20;;;;;30.48;32.85;99684.63;5071843;28;9940;-80
2023/07/18 07:52:45;;;;;;;;;18.00;17.40;;;;;30.62;32.43;99683.19;5068752;28;8866;-78
2023/07/18 07:55:14;;;;;;;;;17.20;17.20;;;;;30.73;32.54;99690.25;5086349;28;8981;-80
2023/07/18 07:57:45;;;;;;;;;18.80;18.20;;;;;30.77;32.24;99688.03;5067394;28;8854;-82
2023/07/18 08:00:15;;;;;;;;;17.60;16.60;;;;;30.61;32.19;99692.31;5050284;28;8876;-79
2023/07/18 08:02:44;;;;;;;;;16.80;16.20;;;;;30.73;32.05;99684.81;5050419;28;8862;-80
2023/07/18 08:05:13;;;;;;;;;16.60;16.00;;;;;30.73;31.74;99682.09;5000413;28;8955;-79
2023/07/18 08:07:43;;;;;;;;;21.00;20.80;;;;;30.86;32.50;99684.34;4969381;28;8879;-79
2023/07/18 08:10:12;;;;;;;;;20.40;19.20;;;;;30.85;32.32;99688.09;5050211;28;8854;-81
2023/07/18 08:12:41;;;;;;;;;19.60;19.60;;;;;31.02;32.41;99692.59;5033271;28;8850;-81
2023/07/18 08:15:11;;;;;;;;;18.75;18.75;;;;;31.07;32.62;99689.38;5050112;28;8949;-82
2023/07/18 08:17:41;;;;;;;;;21.00;19.00;;;;;31.13;32.16;99696.03;5066747;28;9947;-80
2023/07/18 08:20:12;;;;;;;;;3.80;3.80;;;;;31.24;32.46;99693.06;5049828;28;8937;-80
2023/07/18 08:22:41;;;;;;;;;19.50;19.50;;;;;31.06;32.24;99687.69;5066007;28;8848;-79
2023/07/18 08:25:10;;;;;;;;;19.80;19.80;;;;;30.40;32.65;99697.25;5049426;28;8860;-81
2023/07/18 08:27:39;;;;;;;;;18.80;18.00;;;;;30.69;32.96;99691.53;5066071;28;9633;-79
2023/07/18 08:30:09;;;;;;;;;18.40;18.20;;;;;30.83;32.60;99696.41;5052278;28;8852;-80
2023/07/18 08:32:40;;;;;;;;;16.80;16.80;;;;;30.44;33.00;99693.22;5086299;28;8867;-80
2023/07/18 08:35:09;;;;;;;;;20.20;18.40;;;;;30.37;32.87;99692.13;5069774;28;8852;-79
2023/07/18 08:37:39;;;;;;;;;19.60;18.80;;;;;30.57;33.50;99696.34;5069244;28;8832;-79
2023/07/18 08:40:10;;;;;;;;;15.40;15.40;;;;;30.76;32.89;99697.19;5069463;28;8939;-79
2023/07/18 08:42:39;;;;;;;;;19.40;18.80;;;;;30.92;33.01;99695.44;5069032;28;8868;-79
2023/07/18 08:45:10;;;;;;;;;20.80;19.80;;;;;30.65;32.83;99701.00;5069217;28;8851;-80
2023/07/18 08:47:42;;;;;;;;;19.60;19.60;;;;;30.57;33.34;99693.66;5050312;28;8854;-79
2023/07/18 08:50:11;;;;;;;;;19.25;19.25;;;;;30.85;33.38;99694.38;5067213;28;9013;-79
2023/07/18 08:52:41;;;;;;;;;20.60;20.00;;;;;30.95;33.23;99696.13;5066714;28;8831;-82
2023/07/18 08:55:10;;;;;;;;;19.40;19.40;;;;;31.15;32.87;99685.88;5083263;28;8888;-80
2023/07/18 08:57:41;;;;;;;;;19.20;18.20;;;;;31.17;32.72;99692.88;5066991;28;8870;-79
2023/07/18 09:00:11;;;;;;;;;19.75;19.75;;;;;31.16;32.85;99695.72;5068256;28;8854;-81
2023/07/18 09:02:41;;;;;;;;;19.50;19.50;;;;;31.29;32.41;99694.28;5033245;28;8854;-80
2023/07/18 09:05:29;;;;;;;;;18.20;18.20;;;;;31.20;32.72;99691.69;5066724;28;8862;-81
2023/07/18 09:07:59;;;;;;;;;21.00;21.00;;;;;31.23;32.60;99697.66;5068162;28;8842;-79
2023/07/18 09:10:28;;;;;;;;;19.20;18.40;;;;;31.35;32.17;99692.78;5066807;28;8870;-80
2023/07/18 09:13:01;;;;;;;;;22.80;20.00;;;;;31.49;32.55;99696.75;5067024;28;8860;-77
2023/07/18 09:15:31;;;;;;;;;19.40;19.40;;;;;31.45;32.46;99696.22;5066806;28;8850;-80
2023/07/18 09:18:03;;;;;;;;;20.00;19.20;;;;;31.36;32.40;99691.78;5016660;28;8838;-80
2023/07/18 09:20:33;;;;;;;;;21.60;21.60;;;;;31.49;32.61;99689.44;5085175;28;8859;-81
2023/07/18 09:23:04;;;;;;;;;21.40;20.40;;;;;31.44;32.53;99688.22;5067909;28;8903;-81
2023/07/18 09:25:39;;;;;;;;;21.60;21.20;;;;;31.61;32.61;99692.69;5084045;28;9697;-81
2023/07/18 09:28:11;;;;;;;;;21.20;19.00;;;;;31.63;32.06;99687.94;5066534;28;9596;-83
2023/07/18 09:30:41;;;;;;;;;22.40;21.00;;;;;31.87;31.96;99678.19;5053536;28;9071;-79
2023/07/18 09:33:11;;;;;;;;;22.50;22.50;;;;;31.45;32.18;99681.78;5071368;28;10011;-80
2023/07/18 09:35:40;;;;;;;;;17.00;17.00;;;;;31.20;32.72;99675.41;5053726;28;8955;-82
2023/07/18 09:38:11;;;;;;;;;15.80;15.20;;;;;30.77;33.78;99680.75;5088712;28;8840;-75
2023/07/18 09:40:42;;;;;;;;;20.00;19.60;;;;;31.02;33.36;99676.31;5088297;28;8885;-75
2023/07/18 09:43:13;;;;;;;;;18.20;17.60;;;;;31.13;32.76;99677.03;5088820;28;8875;-73
2023/07/18 09:45:43;;;;;;;;;20.40;17.40;;;;;31.36;32.33;99680.91;5088543;28;8863;-75
2023/07/18 09:48:15;;;;;;;;;14.60;14.60;;;;;31.50;32.68;99671.25;5039897;28;8855;-76
2023/07/18 09:50:47;;;;;;;;;17.20;16.80;;;;;31.43;32.20;99667.50;5088663;28;8955;-75
2023/07/18 09:53:21;;;;;;;;;19.40;18.80;;;;;31.52;31.58;99679.25;5088462;28;8847;-75
2023/07/18 09:55:53;;;;;;;;;18.40;18.40;;;;;31.70;31.40;99663.72;5088345;28;8974;-76
2023/07/18 09:58:25;;;;;;;;;19.00;19.00;;;;;31.76;31.55;99673.06;5071614;28;8860;-75
2023/07/18 10:00:56;;;;;;;;;20.00;20.00;;;;;31.14;31.60;99665.16;5071552;28;8889;-77
2023/07/18 10:03:31;;;;;;;;;16.40;16.00;;;;;31.16;31.46;99672.13;5071832;28;8868;-78
2023/07/18 10:06:00;;;;;;;;;17.80;17.20;;;;;31.42;31.12;99663.94;5071615;28;8831;-77
2023/07/18 10:08:30;;;;;;;;;16.80;15.80;;;;;31.45;31.44;99669.06;5036404;28;8923;-78
2023/07/18 10:11:04;;;;;;;;;18.00;17.60;;;;;31.57;31.93;99663.31;5069121;28;8846;-77
2023/07/18 10:13:41;;;;;;;;;18.50;18.00;;;;;31.15;31.53;99659.56;5070987;28;8854;-75
2023/07/18 10:16:17;;;;;;;;;17.20;17.00;;;;;31.14;32.21;99651.59;5070611;28;8838;-78
2023/07/18 10:18:49;;;;;;;;;20.50;20.25;;;;;31.24;32.01;99646.91;5070299;28;9581;-78
2023/07/18 10:21:28;;;;;;;;;14.00;14.00;;;;;31.36;31.58;99652.91;5070773;28;8846;-76
2023/07/18 10:23:58;;;;;;;;;13.00;13.00;;;;;31.49;31.09;99640.53;5069118;28;8889;-78
2023/07/18 10:26:33;;;;;;;;;17.40;17.40;;;;;31.44;31.12;99645.59;5070505;28;8842;-76
2023/07/18 10:29:03;;;;;;;;;14.80;14.80;;;;;31.51;31.42;99640.38;5070567;28;8979;-77
2023/07/18 10:31:35;;;;;;;;;16.75;16.50;;;;;31.62;31.60;99642.78;5070837;28;8870;-77
2023/07/18 10:34:10;;;;;;;;;18.60;18.20;;;;;31.61;31.18;99637.50;5067827;28;8858;-77
2023/07/18 10:36:39;;;;;;;;;15.00;15.00;;;;;31.80;30.66;99641.81;5070490;28;8870;-78
2023/07/18 10:39:12;;;;;;;;;7.50;6.75;;;;;31.87;30.80;99634.69;5069109;28;8881;-78
2023/07/18 10:41:44;;;;;;;;;13.20;13.20;;;;;31.97;30.81;99640.78;5069033;28;8874;-75
2023/07/18 10:44:14;;;;;;;;;18.50;18.50;;;;;32.01;30.38;99641.31;5070491;28;8854;-78
2023/07/18 10:46:43;;;;;;;;;15.00;15.00;;;;;31.88;30.14;99641.81;5070366;28;8843;-77
2023/07/18 10:49:14;;;;;;;;;20.00;18.40;;;;;31.91;30.39;99636.03;5051727;28;8880;-76
2023/07/18 10:51:43;;;;;;;;;15.60;15.00;;;;;32.13;29.72;99634.53;5070052;28;8866;-77
2023/07/18 10:54:12;;;;;;;;;17.00;16.80;;;;;31.64;30.17;99631.75;5069778;28;8886;-76
2023/07/18 10:56:41;;;;;;;;;15.80;15.20;;;;;31.61;30.18;99622.03;5069805;28;8873;-78
2023/07/18 10:59:13;;;;;;;;;16.00;15.60;;;;;31.96;29.61;99630.06;5069875;28;8885;-75
2023/07/18 11:01:41;;;;;;;;;18.00;18.00;;;;;32.13;29.92;99623.66;5069908;28;8851;-77
2023/07/18 11:04:11;;;;;;;;;17.50;17.50;;;;;32.31;30.12;99623.47;5069670;28;8881;-76
2023/07/18 11:06:50;;;;;;;;;16.80;16.20;;;;;32.60;29.86;99624.78;5069653;28;8873;-76
2023/07/18 11:09:19;;;;;;;;;15.60;14.40;;;;;32.63;28.95;99613.59;5069725;28;8850;-76
2023/07/18 11:11:50;;;;;;;;;17.50;17.50;;;;;32.73;29.29;99618.81;5069709;28;9673;-76
2023/07/18 11:14:21;;;;;;;;;21.25;19.25;;;;;33.08;29.22;99609.38;5069488;28;8830;-77
2023/07/18 11:16:50;;;;;;;;;15.80;15.20;;;;;33.30;28.02;99615.91;5034197;28;8850;-76
2023/07/18 11:19:20;;;;;;;;;23.20;19.80;;;;;33.42;28.18;99606.28;5069661;28;8846;-76
2023/07/18 11:21:50;;;;;;;;;18.00;17.75;;;;;33.40;28.56;99602.03;5017754;28;8842;-78
2023/07/18 11:24:19;;;;;;;;;22.25;22.25;;;;;33.63;28.24;99606.69;5069400;28;8854;-76
2023/07/18 11:26:47;;;;;;;;;18.25;18.25;;;;;33.74;27.84;99600.81;5069762;28;8851;-76
2023/07/18 11:29:19;;;;;;;;;17.25;17.00;;;;;34.01;26.64;99607.59;5069361;28;8854;-76
2023/07/18 11:31:48;;;;;;;;;18.00;18.00;;;;;34.21;27.06;99591.56;5069406;28;8838;-76
2023/07/18 11:34:23;;;;;;;;;20.50;19.25;;;;;34.56;26.42;99600.09;5069422;28;8861;-77
2023/07/18 11:36:53;;;;;;;;;18.50;18.50;;;;;34.72;26.21;99593.63;5069197;28;8858;-77